Flight Track Log - Related Links

Times and Time Zones

All times are in EDT time to prevent confusion due to time zone crossing. See the COM3138 flight status page for this flight to view local times or setup timezone preferences in your user account.

Time Position Orientation Groundspeed Altitude Reporting Facility
EDT Latitude Longitude Course Direction KTS MPH feet Rate Location/Type
Fri 08:29:51 PM 39.0500 -84.6833 303° West 146 168 1,400  Level Cincinnati TRACON
Fri 08:30:39 PM 39.0667 -84.7167 57° Northeast 173 199 2,800 1,947 Climbing Cincinnati TRACON
Fri 08:31:45 PM 39.1000 -84.6500 78° East 245 282 5,100 2,238 Climbing Cincinnati TRACON
Fri 08:32:45 PM 39.1167 -84.5500 83° East 290 334 7,500 2,299 Climbing Cincinnati TRACON
Fri 08:33:32 PM 39.1239 -84.4778 78° East 303 349 9,200 2,075 Climbing Indianapolis Center
Fri 08:34:32 PM 39.1414 -84.3708 84° East 372 428 11,200 2,000 Climbing Indianapolis Center
Fri 08:35:32 PM 39.1525 -84.2425 99° East 383 441 13,200 1,900 Climbing Indianapolis Center
Fri 08:36:32 PM 39.1344 -84.1031 101° East 383 441 15,000 1,750 Climbing Indianapolis Center
Fri 08:37:32 PM 39.1122 -83.9611 70° East 398 458 16,700 2,050 Climbing Indianapolis Center
Fri 08:38:32 PM 39.1522 -83.8167 66° East 403 464 19,100 2,150 Climbing Indianapolis Center
Fri 08:39:32 PM 39.2025 -83.6722 67° East 434 499 21,000 1,850 Climbing Indianapolis Center
Fri 08:40:32 PM 39.2503 -83.5275 67° East 440 506 22,800 1,700 Climbing Indianapolis Center
Fri 08:41:32 PM 39.3003 -83.3744 67° East 446 513 24,400 1,550 Climbing Indianapolis Center
Fri 08:42:32 PM 39.3522 -83.2186 67° East 460 529 25,900 1,550 Climbing Indianapolis Center
Fri 08:43:32 PM 39.4036 -83.0600 67° East 460 529 27,500 1,700 Climbing Indianapolis Center
Fri 08:44:32 PM 39.4592 -82.8900 67° East 460 529 29,300 1,750 Climbing Indianapolis Center
Fri 08:45:32 PM 39.5103 -82.7361 68° East 460 529 31,000 1,600 Climbing Indianapolis Center
Fri 08:46:32 PM 39.5592 -82.5822 67° East 460 529 32,500 1,400 Climbing Indianapolis Center
Fri 08:47:32 PM 39.6078 -82.4306 67° East 453 521 33,800 1,150 Climbing Indianapolis Center
Fri 08:48:32 PM 39.6564 -82.2814 68° East 453 521 34,800 343 Climbing Indianapolis Center
Fri 08:51:02 PM 39.7761 -81.8906 68° East 471 542 35,000 57 Climbing Cleveland Center
Fri 08:52:02 PM 39.8258 -81.7292 67° East 461 531 35,000  Level Cleveland Center
Fri 08:53:02 PM 39.8753 -81.5758 68° East 466 536 35,000  Level Cleveland Center
Fri 08:54:02 PM 39.9244 -81.4169 68° East 466 536 35,000  Level Cleveland Center
Fri 08:55:02 PM 39.9756 -81.2550 67° East 471 542 35,000  Level Cleveland Center
Fri 08:56:02 PM 40.0264 -81.0956 68° East 471 542 35,000  Level Cleveland Center
Fri 08:57:02 PM 40.0750 -80.9386 69° East 471 542 35,000  Level Cleveland Center
Fri 08:58:02 PM 40.1211 -80.7786 69° East 471 542 35,000  Level Cleveland Center
Fri 08:59:02 PM 40.1692 -80.6183 68° East 471 542 35,000  Level Cleveland Center
Fri 09:00:02 PM 40.2192 -80.4581 70° East 471 542 35,000  Level Cleveland Center
Fri 09:01:02 PM 40.2647 -80.2975 67° East 466 536 35,000  Level Cleveland Center
Fri 09:02:02 PM 40.3103 -80.1531 71° East 476 548 35,000  Level Cleveland Center
Fri 09:03:02 PM 40.3533 -79.9892 68° East 465 535 35,000  Level Cleveland Center
Fri 09:04:02 PM 40.4003 -79.8333 68° East 471 542 35,000  Level Cleveland Center
Fri 09:05:02 PM 40.4472 -79.6772 69° East 465 535 35,000  Level Cleveland Center
Fri 09:06:02 PM 40.4936 -79.5156 69° East 465 535 35,000  Level Cleveland Center
Fri 09:07:02 PM 40.5381 -79.3592 70° East 465 535 35,000  Level Cleveland Center
Fri 09:08:02 PM 40.5819 -79.1969 68° East 465 535 35,000  Level Cleveland Center
Fri 09:09:02 PM 40.6300 -79.0375 71° East 470 541 35,000  Level Cleveland Center
Fri 09:10:02 PM 40.6714 -78.8750 69° East 470 541 35,000  Level Cleveland Center
Fri 09:11:02 PM 40.7228 -78.6956 70° East 470 541 35,000  Level Cleveland Center
Fri 09:12:40 PM 40.7944 -78.4361 70° East 501 577 35,000  Level New York Center
Fri 09:13:39 PM 40.8381 -78.2761 70° East 482 555 35,000  Level New York Center
Fri 09:14:38 PM 40.8814 -78.1161 68° East 467 537 35,000  Level New York Center
Fri 09:15:38 PM 40.9311 -77.9539 59° Northeast 467 537 35,000  Level New York Center
Fri 09:16:38 PM 40.9983 -77.8042 60° Northeast 467 537 35,000  Level New York Center
Fri 09:17:40 PM 41.0633 -77.6567 58° Northeast 467 537 35,000  Level New York Center
Fri 09:18:40 PM 41.1325 -77.5067 60° Northeast 467 537 35,000  Level New York Center
Fri 09:19:41 PM 41.1850 -77.3878 59° Northeast 467 537 35,000  Level New York Center
Fri 09:20:38 PM 41.2564 -77.2264 60° Northeast 462 532 35,000  Level New York Center
Fri 09:21:39 PM 41.3228 -77.0725 60° Northeast 467 537 35,000  Level New York Center
Fri 09:22:40 PM 41.3869 -76.9236 59° Northeast 462 532 35,000  Level New York Center
Fri 09:23:40 PM 41.4531 -76.7747 60° Northeast 462 532 35,000  Level New York Center
Fri 09:26:05 PM 41.6161 -76.3975 61° Northeast 468 539 35,000  Level Boston Center
Fri 09:27:05 PM 41.6797 -76.2458 61° Northeast 468 539 35,000  Level Boston Center
Fri 09:28:05 PM 41.7431 -76.0936 61° Northeast 468 539 35,000  Level Boston Center
Fri 09:29:05 PM 41.8064 -75.9386 61° Northeast 468 539 35,000  Level Boston Center
Fri 09:30:05 PM 41.8694 -75.7858 60° Northeast 468 539 35,000  Level Boston Center
Fri 09:31:05 PM 41.9344 -75.6331 61° Northeast 468 539 35,000  Level Boston Center
Fri 09:32:05 PM 41.9969 -75.4797 61° Northeast 468 539 35,000  Level Boston Center
Fri 09:33:05 PM 42.0614 -75.3233 58° Northeast 468 539 35,000  Level Boston Center
Fri 09:34:05 PM 42.1297 -75.1753 71° East 468 539 35,000  Level Boston Center
Fri 09:35:05 PM 42.1689 -75.0172 80° East 458 527 35,000  Level Boston Center
Fri 09:36:05 PM 42.1914 -74.8444 79° East 458 527 35,000  Level Boston Center
Fri 09:37:05 PM 42.2158 -74.6686 80° East 463 533 35,000  Level Boston Center
Fri 09:38:05 PM 42.2381 -74.4956 78° East 469 540 35,000  Level Boston Center
Fri 09:39:05 PM 42.2661 -74.3114 80° East 462 532 35,000  Level Boston Center
Fri 09:40:05 PM 42.2897 -74.1381 80° East 462 532 35,000  Level Boston Center
Fri 09:41:05 PM 42.3108 -73.9675 79° East 462 532 35,000  Level Boston Center
Fri 09:42:05 PM 42.3294 -73.8331 81° East 467 537 35,000 -850 Level Boston Center
Fri 09:43:05 PM 42.3525 -73.6397 79° East 467 537 33,300 -1,850 Descending Boston Center
Fri 09:44:05 PM 42.3769 -73.4658 80° East 462 532 31,300 -2,150 Descending Boston Center
Fri 09:45:05 PM 42.4014 -73.2750 80° East 472 543 29,000 -2,150 Descending Boston Center
Fri 09:46:05 PM 42.4236 -73.1011 81° East 472 543 27,000 -2,000 Descending Boston Center
Fri 09:47:05 PM 42.4431 -72.9325 80° East 464 534 25,000 -2,000 Descending Boston Center
Fri 09:48:05 PM 42.4644 -72.7722 81° East 449 517 23,000 -2,000 Descending Boston Center
Fri 09:49:05 PM 42.4836 -72.6061 82° East 442 509 21,000 -1,800 Descending Boston Center
Fri 09:50:05 PM 42.4964 -72.4767 80° East 437 503 19,400 -1,750 Descending Boston Center
Fri 09:51:05 PM 42.5169 -72.3189 86° East 416 479 17,500 -1,950 Descending Boston Center
Fri 09:52:05 PM 42.5250 -72.1583 94° East 393 452 15,500 -1,850 Descending Boston Center
Fri 09:53:05 PM 42.5183 -72.0147 91° East 383 441 13,800 -1,350 Descending Boston Center
Fri 09:54:05 PM 42.5158 -71.8739 93° East 383 441 12,800 -1,050 Descending Boston Center
Fri 09:55:05 PM 42.5108 -71.7303 94° East 383 441 11,700 -950 Descending Boston Center
Fri 09:56:05 PM 42.5036 -71.5953 98° East 367 422 10,900 -950 Descending Boston Center
Fri 09:57:05 PM 42.4922 -71.4828 83° East 322 371 9,800 -1,250 Descending Boston Center
Fri 09:58:05 PM 42.5017 -71.3728 64° Northeast 297 342 8,400 -1,500 Descending Boston Center
Fri 09:58:57 PM 42.5333 -71.2833 90° East 290 334 7,000 -1,393 Descending Boston TRACON
Fri 09:59:57 PM 42.5333 -71.1833 90° East 276 318 5,800 -1,250 Descending Boston TRACON
Fri 10:00:57 PM 42.5333 -71.0833 105° East 249 287 4,500 -1,150 Descending Boston TRACON
Fri 10:01:57 PM 42.5167 -71.0000 144° Southeast 192 221 3,500 -1,190 Descending Boston TRACON
Fri 10:02:58 PM 42.4833 -70.9667 180° South 163 188 2,100 -1,041 Descending Boston TRACON
Fri 10:03:58 PM 42.4500 -70.9667 200° South 119 137 1,400 -632 Descending Boston TRACON
Fri 10:04:52 PM 42.4167 -70.9833 200° South 122 140 900 -571 Descending Boston TRACON
Fri 10:06:04 PM 42.3833 -71.0000 208° Southwest 125 144 200 3,140 Descending Boston TRACON
Fri 10:08:05 PM 42.3250 -71.0417 208° Southwest 125 144 11,000 5,355 Climbing Boston Center

Login

Don't have an account? Register now (free) for customized features, flight alerts, and more!